CYDF/YDF METAR and TAF weather

Enter ICAO airport designator
Station Type Date Time Source
CYDF METAR 2020/02/16 20:00 UTC NOAA

CYDF 162000Z 23015G21KT 2 1/2SM -SN OVC016 M02/M04 A2982 RMK SC8 SLP100


Station Type Date Time Source
CYDF Decoded METAR 2020/02/16 20:00 UTC NOAA

Deer Lake, Nfld., Canada (CYDF) 49-13N 057-24W 22M
Feb 16, 2020 - 03:00 PM EST / 2020.02.16 2000 UTC
Wind: from the SW (230 degrees) at 17 MPH (15 KT) gusting to 24 MPH (21 KT):0
Visibility: 2 1/2 mile(s):0
Sky conditions: overcast
Weather: light snow
Temperature: 28 F (-2 C)
Windchill: 15 F (-9 C):1
Dew Point: 24 F (-4 C)
Relative Humidity: 86%
Pressure (altimeter): 29.82 in. Hg (1009 hPa)
ob: CYDF 162000Z 23015G21KT 2 1/2SM -SN OVC016 M02/M04 A2982 RMK SC8 SLP100
cycle: 20

Station Type Date Time Source
CYDF TAF 2020/02/16 20:42 UTC NOAA

TAF CYDF 161938Z 1620/1708 24020G35KT 2SM -SHSN OVC015
TEMPO 1620/1622 6SM -SHSN OVC030 PROB30 1620/1622 3/4SM -SHSN BLSN VV007
FM162200 25015G30KT P6SM BKN030
TEMPO 1622/1703 2SM -SHSN BKN020
BECMG 1700/1702 23012KT
FM170300 23012KT P6SM BKN030
TEMPO 1703/1706 6SM -SHSN BKN020
FM170600 23007KT P6SM SCT030
RMK NXT FCST BY 170200Z

Example: see airport list